Time;durP1;ratioP1;P1;durP2;ratioP2;P2;SDS_P1;SDS_P2;PMS_P1;PMS_P2;Temp;Humidity;BMP_temperature;BMP_pressure;BME280_temperature;BME280_humidity;BME280_pressure;Samples;Min_cycle;Max_cycle;Signal;HPM_P1;HPM_P2
2022/10/27 00:00:26;;;;;;;1.00;0.90;;;;;;;21.66;45.75;101216.53;4520103;28;20040;-63
2022/10/27 00:02:36;;;;;;;1.83;1.10;;;;;;;21.66;45.29;101219.41;4533219;28;20036;-62
2022/10/27 00:04:46;;;;;;;1.27;1.00;;;;;;;21.66;45.05;101219.41;4518657;28;20165;-63
2022/10/27 00:06:57;;;;;;;1.25;1.08;;;;;;;21.66;45.16;101222.28;4518387;28;20038;-63
2022/10/27 00:09:07;;;;;;;1.10;0.90;;;;;;;21.66;45.25;101216.53;4518984;28;20120;-62
2022/10/27 00:11:18;;;;;;;1.10;1.00;;;;;;;21.62;45.35;101215.59;4517019;28;20042;-63
2022/10/27 00:13:29;;;;;;;1.35;1.13;;;;;;;21.64;45.31;101218.97;4518140;28;20034;-63
2022/10/27 00:15:40;;;;;;;1.40;1.10;;;;;;;21.63;45.35;101219.28;4520114;28;20168;-63
2022/10/27 00:17:50;;;;;;;2.00;1.15;;;;;;;21.64;45.37;101218.97;4517848;28;20600;-63
2022/10/27 00:20:01;;;;;;;1.55;1.05;;;;;;;21.64;45.21;101218.97;4520132;28;20041;-63
2022/10/27 00:22:11;;;;;;;1.38;1.20;;;;;;;21.62;45.25;101220.50;4520691;28;20116;-63
2022/10/27 00:24:22;;;;;;;1.58;1.13;;;;;;;21.64;45.45;101223.84;4521432;28;20037;-63
2022/10/27 00:26:32;;;;;;;1.65;1.00;;;;;;;21.63;45.43;101228.75;4521104;28;20053;-63
2022/10/27 00:28:43;;;;;;;1.08;0.98;;;;;;;21.63;45.25;101223.00;4519205;28;20113;-62
2022/10/27 00:31:02;;;;;;;1.52;1.27;;;;;;;21.64;45.29;101227.56;4522766;28;20569;-63
2022/10/27 00:33:12;;;;;;;1.40;1.20;;;;;;;21.63;45.38;101225.03;4521147;28;20152;-63
2022/10/27 00:35:22;;;;;;;1.10;1.00;;;;;;;21.63;45.38;101227.91;4522177;28;20041;-65
2022/10/27 00:37:33;;;;;;;1.27;0.90;;;;;;;21.62;45.49;101232.84;4521070;28;20037;-63
2022/10/27 00:39:43;;;;;;;1.73;1.00;;;;;;;21.61;45.08;101222.53;4521394;28;20092;-63
2022/10/27 00:41:54;;;;;;;1.25;1.08;;;;;;;21.61;45.26;101231.13;4521735;28;20406;-62
2022/10/27 00:44:26;;;;;;;1.30;1.20;;;;;;;21.61;45.08;101234.00;4521522;28;20426;-63
2022/10/27 00:46:46;;;;;;;1.10;1.00;;;;;;;21.61;45.03;101231.13;4519789;28;20033;-65
2022/10/27 00:49:04;;;;;;;1.60;1.08;;;;;;;21.61;44.94;101241.81;4521934;28;20044;-64
2022/10/27 00:51:17;;;;;;;1.35;1.00;;;;;;;21.61;44.78;101239.75;4520494;28;20562;-65
2022/10/27 00:53:29;;;;;;;1.20;1.10;;;;;;;21.62;44.61;101249.22;4521264;28;20090;-65
2022/10/27 00:55:40;;;;;;;2.85;1.20;;;;;;;21.60;45.02;101246.72;4522914;28;20040;-65
2022/10/27 00:57:56;;;;;;;1.65;0.90;;;;;;;21.60;44.47;101252.47;4522368;28;20619;-64
2022/10/27 01:00:07;;;;;;;1.85;1.15;;;;;;;21.61;44.25;101247.56;4520486;28;20068;-64
2022/10/27 01:02:17;;;;;;;1.40;1.23;;;;;;;21.60;44.15;101261.06;4516650;28;20049;-65
2022/10/27 01:04:44;;;;;;;2.03;1.02;;;;;;;21.57;43.85;101250.31;4520494;28;20421;-65
2022/10/27 01:06:55;;;;;;;2.08;1.38;;;;;;;21.60;43.93;101261.06;4521686;28;20040;-64
2022/10/27 01:09:07;;;;;;;1.48;1.05;;;;;;;21.61;43.75;101264.78;4536789;28;20048;-65
2022/10/27 01:11:17;;;;;;;1.15;1.00;;;;;;;21.57;43.99;101253.19;4519902;28;20030;-65
2022/10/27 01:13:27;;;;;;;1.30;1.20;;;;;;;21.57;44.15;101260.94;4520727;28;20045;-64
2022/10/27 01:15:47;;;;;;;1.67;1.20;;;;;;;21.58;44.33;101254.84;4521916;28;20512;-64
2022/10/27 01:18:14;;;;;;;1.95;1.00;;;;;;;21.59;44.55;101256.53;4520422;28;20044;-64
2022/10/27 01:20:40;;;;;;;1.20;1.10;;;;;;;21.58;44.79;101259.78;4521461;28;20064;-64
2022/10/27 01:22:53;;;;;;;2.05;1.27;;;;;;;21.58;44.78;101254.84;4520617;28;20101;-65
2022/10/27 01:25:40;;;;;;;1.30;1.20;;;;;;;21.58;44.64;101260.59;4519737;28;20064;-65
2022/10/27 01:28:21;;;;;;;1.15;1.05;;;;;;;21.57;44.99;101253.19;4520748;28;20138;-65
2022/10/27 01:30:45;;;;;;;1.60;1.30;;;;;;;21.58;45.27;101259.78;4520799;28;20052;-64
2022/10/27 01:33:03;;;;;;;1.10;1.00;;;;;;;21.57;44.88;101252.31;4520828;28;20061;-65
2022/10/27 01:35:29;;;;;;;1.67;1.23;;;;;;;21.58;44.76;101265.50;4519651;28;20033;-64
2022/10/27 01:37:59;;;;;;;1.35;1.20;;;;;;;21.57;44.78;101264.66;4520245;28;20033;-65
2022/10/27 01:40:17;;;;;;;1.92;1.20;;;;;;;21.56;44.64;101263.00;4520968;28;20580;-64
2022/10/27 01:42:38;;;;;;;1.50;1.20;;;;;;;21.56;44.71;101268.75;4519990;28;20029;-64
2022/10/27 01:44:52;;;;;;;1.88;1.50;;;;;;;21.56;44.68;101274.50;4522129;28;20092;-65
2022/10/27 01:47:03;;;;;;;1.20;1.10;;;;;;;21.56;44.56;101276.50;4519201;28;20711;-65
2022/10/27 01:49:14;;;;;;;1.35;1.23;;;;;;;21.56;44.32;101270.78;4519329;28;20108;-64
2022/10/27 01:51:24;;;;;;;1.60;1.27;;;;;;;21.56;44.71;101279.38;4519741;28;20025;-65
2022/10/27 01:53:43;;;;;;;1.52;1.20;;;;;;;21.56;44.50;101279.38;4519781;28;20457;-65
2022/10/27 01:56:34;;;;;;;1.17;1.05;;;;;;;21.56;44.35;101285.13;4519392;28;20068;-65
2022/10/27 01:58:56;;;;;;;1.80;1.30;;;;;;;21.55;43.74;101272.78;4520089;28;20589;-65
2022/10/27 02:01:25;;;;;;;1.50;1.30;;;;;;;21.55;44.14;101284.28;4520168;28;20048;-65
2022/10/27 02:04:12;;;;;;;1.77;1.50;;;;;;;21.54;44.14;101274.00;4520301;28;20124;-65
2022/10/27 02:06:48;;;;;;;1.80;1.40;;;;;;;21.55;44.52;101280.59;4518427;28;20044;-65
2022/10/27 02:09:13;;;;;;;1.52;1.42;;;;;;;21.54;44.28;101278.91;4520310;28;20077;-64
2022/10/27 02:11:26;;;;;;;1.40;1.30;;;;;;;21.52;44.04;101282.13;4519809;28;20033;-64
2022/10/27 02:13:40;;;;;;;1.48;1.38;;;;;;;21.53;44.12;101280.09;4520924;28;20033;-64
2022/10/27 02:15:59;;;;;;;1.50;1.40;;;;;;;21.53;43.92;101280.91;4518993;28;20022;-65
2022/10/27 02:18:22;;;;;;;1.63;1.40;;;;;;;21.53;44.03;101286.66;4519292;28;20624;-64
2022/10/27 02:20:39;;;;;;;1.63;1.50;;;;;;;21.53;44.34;101280.09;4519155;28;20089;-65
2022/10/27 02:22:54;;;;;;;1.73;1.40;;;;;;;21.53;44.27;101286.66;4519828;28;20044;-65
2022/10/27 02:25:05;;;;;;;2.03;1.40;;;;;;;21.52;43.91;101285.00;4519992;28;20084;-65
2022/10/27 02:27:38;;;;;;;1.88;1.45;;;;;;;21.53;43.72;101280.91;4518028;28;20517;-64
2022/10/27 02:29:55;;;;;;;1.58;1.40;;;;;;;21.53;43.72;101280.09;4520377;28;20065;-64
2022/10/27 02:32:10;;;;;;;1.60;1.42;;;;;;;21.52;43.65;101282.13;4519431;28;20045;-65
2022/10/27 02:34:23;;;;;;;1.55;1.35;;;;;;;21.52;43.67;101279.25;4519281;28;20571;-65
2022/10/27 02:36:34;;;;;;;1.30;1.20;;;;;;;21.48;43.84;101266.81;4520237;28;20041;-64
2022/10/27 02:38:44;;;;;;;1.55;1.33;;;;;;;21.49;43.77;101273.38;4518709;28;20592;-64
2022/10/27 02:40:55;;;;;;;1.48;1.30;;;;;;;21.51;44.06;101283.34;4519896;28;20125;-65
2022/10/27 02:43:05;;;;;;;2.55;1.20;;;;;;;21.50;44.00;101278.78;4519191;28;20165;-65
2022/10/27 02:45:16;;;;;;;1.50;1.30;;;;;;;21.51;44.16;101277.59;4520379;28;20042;-65
2022/10/27 02:47:26;;;;;;;1.27;1.17;;;;;;;21.51;44.22;101280.47;4520876;28;20045;-64
2022/10/27 02:49:37;;;;;;;1.30;1.20;;;;;;;21.47;43.94;101276.63;4521305;28;20037;-64
2022/10/27 02:51:47;;;;;;;1.10;1.00;;;;;;;21.50;44.29;101275.09;4519085;28;20148;-65
2022/10/27 02:53:58;;;;;;;1.20;1.10;;;;;;;21.49;43.66;101271.34;4519884;28;20773;-65
2022/10/27 02:56:08;;;;;;;1.35;1.10;;;;;;;21.49;43.65;101268.50;4515761;28;20536;-64
2022/10/27 02:58:18;;;;;;;1.63;1.52;;;;;;;21.51;44.05;101268.13;4519561;28;20033;-64
2022/10/27 03:00:29;;;;;;;1.45;1.30;;;;;;;21.49;44.01;101271.34;4520418;28;24256;-64
2022/10/27 03:02:39;;;;;;;1.50;1.20;;;;;;;21.49;43.99;101265.63;4521285;28;20961;-64
2022/10/27 03:04:50;;;;;;;1.60;1.50;;;;;;;21.49;43.86;101267.63;4519294;28;20119;-64
2022/10/27 03:07:01;;;;;;;1.50;1.40;;;;;;;21.49;43.48;101268.50;4521505;28;20030;-64
2022/10/27 03:09:11;;;;;;;1.65;1.42;;;;;;;21.48;43.28;101275.44;4520183;28;20064;-64
2022/10/27 03:11:21;;;;;;;1.77;1.50;;;;;;;21.48;43.32;101280.34;4520027;28;20038;-64
2022/10/27 03:13:32;;;;;;;1.75;1.30;;;;;;;21.49;43.09;101282.00;4520791;28;20029;-64
2022/10/27 03:15:46;;;;;;;1.40;1.30;;;;;;;21.49;42.90;101279.13;4519303;28;20039;-64
2022/10/27 03:17:56;;;;;;;1.42;1.33;;;;;;;21.46;42.74;101280.69;4519434;28;20068;-64
2022/10/27 03:20:07;;;;;;;2.05;1.30;;;;;;;21.47;42.57;101285.22;4519501;28;20095;-64
2022/10/27 03:22:18;;;;;;;2.17;1.50;;;;;;;21.47;42.68;101279.50;4519409;28;20519;-64
2022/10/27 03:24:28;;;;;;;1.50;1.38;;;;;;;21.47;42.94;101288.09;4519443;28;20037;-64
2022/10/27 03:26:39;;;;;;;1.50;1.40;;;;;;;21.46;42.81;101286.44;4519891;28;20604;-65
2022/10/27 03:28:51;;;;;;;2.47;1.30;;;;;;;21.46;42.76;101280.69;4519352;28;20504;-64
2022/10/27 03:31:05;;;;;;;2.42;1.40;;;;;;;21.47;42.59;101281.53;4518085;28;20021;-64
2022/10/27 03:33:15;;;;;;;1.67;1.38;;;;;;;21.46;42.60;101279.84;4519715;28;20628;-64
2022/10/27 03:35:26;;;;;;;1.83;1.40;;;;;;;21.42;42.54;101285.47;4520647;28;20438;-64
2022/10/27 03:37:36;;;;;;;1.75;1.40;;;;;;;21.45;42.75;101287.66;4519329;28;20040;-65
2022/10/27 03:39:46;;;;;;;1.63;1.30;;;;;;;21.46;42.44;101291.34;4520132;28;24076;-65
2022/10/27 03:41:57;;;;;;;1.60;1.30;;;;;;;21.46;42.65;101295.06;4537819;28;20080;-64
2022/10/27 03:44:07;;;;;;;2.15;1.30;;;;;;;21.45;42.35;101290.50;4521125;28;20041;-64
2022/10/27 03:46:17;;;;;;;1.30;1.20;;;;;;;21.44;42.34;101294.56;4517994;28;24520;-64
2022/10/27 03:48:28;;;;;;;1.42;1.33;;;;;;;21.44;42.06;101297.44;4519236;28;20096;-64
2022/10/27 03:50:38;;;;;;;1.15;1.05;;;;;;;21.44;42.49;101303.19;4519766;28;20045;-64
2022/10/27 03:52:49;;;;;;;1.50;1.40;;;;;;;21.45;42.21;101304.03;4518586;28;20448;-64
2022/10/27 03:54:59;;;;;;;1.40;1.20;;;;;;;21.45;42.35;101295.41;4521881;28;20108;-64
2022/10/27 03:57:11;;;;;;;1.92;1.30;;;;;;;21.44;42.32;101294.56;4520832;28;20055;-64
2022/10/27 03:59:22;;;;;;;2.35;1.20;;;;;;;21.44;42.50;101306.06;4522697;28;20072;-64
2022/10/27 04:01:33;;;;;;;2.30;1.27;;;;;;;21.42;42.58;101294.06;4522786;28;20978;-64
2022/10/27 04:03:46;;;;;;;1.48;1.30;;;;;;;21.44;42.76;101299.47;4522940;28;20033;-64
2022/10/27 04:05:58;;;;;;;1.38;1.10;;;;;;;21.44;42.44;101294.56;4522158;28;20037;-64
2022/10/27 04:08:08;;;;;;;1.58;1.10;;;;;;;21.44;42.50;101300.31;4520527;28;20243;-64
2022/10/27 04:10:18;;;;;;;1.48;1.15;;;;;;;21.43;42.77;101292.91;4521849;28;20042;-65
2022/10/27 04:12:29;;;;;;;1.60;1.38;;;;;;;21.44;42.63;101290.84;4520560;28;20636;-64
2022/10/27 04:14:39;;;;;;;1.02;0.95;;;;;;;21.43;42.86;101287.16;4521872;28;20033;-64
2022/10/27 04:16:50;;;;;;;0.90;0.90;;;;;;;21.42;42.88;101285.47;4521868;28;20044;-64
2022/10/27 04:19:00;;;;;;;1.20;1.10;;;;;;;21.42;42.86;101285.47;4520771;28;20359;-64
2022/10/27 04:21:11;;;;;;;2.17;1.17;;;;;;;21.43;43.10;101286.31;4522420;28;20046;-63
2022/10/27 04:23:21;;;;;;;1.38;1.05;;;;;;;21.34;43.30;101274.94;4523108;28;20508;-63
2022/10/27 04:25:32;;;;;;;1.30;1.20;;;;;;;21.41;43.15;101283.78;4521742;28;20968;-64
2022/10/27 04:27:42;;;;;;;1.00;0.90;;;;;;;21.42;43.06;101285.47;4523214;28;20042;-64
2022/10/27 04:29:53;;;;;;;2.25;1.10;;;;;;;21.41;43.40;101283.78;4521155;28;20041;-64
2022/10/27 04:32:03;;;;;;;1.80;1.00;;;;;;;21.41;43.18;101283.78;4519855;28;20132;-64
2022/10/27 04:34:14;;;;;;;1.05;0.95;;;;;;;21.41;43.40;101286.66;4521001;28;20049;-64
2022/10/27 04:36:25;;;;;;;1.38;1.10;;;;;;;21.41;42.72;101286.66;4523121;28;20309;-64
2022/10/27 04:38:35;;;;;;;1.20;1.10;;;;;;;21.41;42.95;101283.78;4522427;28;20054;-64
2022/10/27 04:40:45;;;;;;;1.23;1.02;;;;;;;21.39;43.35;101283.31;4522736;28;20457;-63
2022/10/27 04:42:56;;;;;;;1.38;1.15;;;;;;;21.41;43.71;101278.03;4520419;28;20390;-64
2022/10/27 04:45:07;;;;;;;1.50;1.13;;;;;;;21.39;43.79;101268.94;4520959;28;20050;-64
2022/10/27 04:47:17;;;;;;;1.10;1.00;;;;;;;21.41;43.89;101280.06;4520876;28;20069;-65
2022/10/27 04:49:28;;;;;;;1.65;1.10;;;;;;;21.39;43.76;101273.88;4522916;28;20025;-64
2022/10/27 04:51:38;;;;;;;1.30;1.20;;;;;;;21.39;43.07;101280.44;4522020;28;20124;-64
2022/10/27 04:53:49;;;;;;;2.63;1.00;;;;;;;21.40;42.57;101278.41;4522142;28;20107;-64
2022/10/27 04:55:59;;;;;;;1.85;1.05;;;;;;;21.37;42.38;101271.34;4520784;28;20436;-64
2022/10/27 04:58:10;;;;;;;1.10;1.00;;;;;;;21.39;42.08;101274.69;4521399;28;20044;-64
2022/10/27 05:00:21;;;;;;;1.52;1.17;;;;;;;21.40;41.69;101270.63;4534518;28;20025;-64
2022/10/27 05:02:31;;;;;;;1.75;1.00;;;;;;;21.39;41.92;101268.94;4522442;28;21494;-66
2022/10/27 05:04:42;;;;;;;1.77;1.10;;;;;;;21.38;42.05;101264.41;4520872;28;20112;-64
2022/10/27 05:06:52;;;;;;;0.98;0.90;;;;;;;21.39;42.49;101262.38;4520662;28;20131;-63
2022/10/27 05:09:02;;;;;;;1.85;1.00;;;;;;;21.38;42.33;101267.28;4521208;28;20138;-64
2022/10/27 05:11:13;;;;;;;1.15;1.05;;;;;;;21.36;42.49;101261.03;4518864;28;20039;-63
2022/10/27 05:13:23;;;;;;;1.00;0.90;;;;;;;21.39;42.47;101265.25;4521053;28;20033;-63
2022/10/27 05:15:34;;;;;;;1.45;1.10;;;;;;;21.38;42.88;101258.66;4521218;28;20044;-64
2022/10/27 05:17:44;;;;;;;1.95;1.10;;;;;;;21.38;42.58;101266.44;4520110;28;20038;-64
2022/10/27 05:19:55;;;;;;;1.88;1.05;;;;;;;21.38;42.58;101266.44;4521840;28;20099;-64
2022/10/27 05:22:05;;;;;;;1.10;0.98;;;;;;;21.37;42.63;101267.63;4522034;28;20022;-66
2022/10/27 05:24:16;;;;;;;0.85;0.80;;;;;;;21.37;42.22;101271.34;4521442;28;20033;-64
2022/10/27 05:26:27;;;;;;;1.80;0.90;;;;;;;21.37;42.30;101271.34;4520055;28;21031;-64
2022/10/27 05:28:37;;;;;;;1.60;1.10;;;;;;;21.36;42.38;101274.59;4521437;28;20036;-64
2022/10/27 05:30:48;;;;;;;1.88;0.90;;;;;;;21.37;43.45;101270.50;4521544;28;20022;-64
2022/10/27 05:32:58;;;;;;;1.65;0.98;;;;;;;21.35;43.93;101268.00;4520282;28;20410;-64
2022/10/27 05:35:09;;;;;;;1.85;1.10;;;;;;;21.36;44.50;101263.09;4520365;28;20311;-64
2022/10/27 05:37:19;;;;;;;1.42;1.10;;;;;;;21.35;44.67;101268.00;4519636;28;20041;-64
2022/10/27 05:39:30;;;;;;;2.70;1.20;;;;;;;21.33;45.01;101264.63;4522553;28;20060;-64
2022/10/27 05:41:40;;;;;;;1.80;1.20;;;;;;;21.36;45.03;101260.22;4522153;28;20444;-64
2022/10/27 05:43:51;;;;;;;1.30;0.90;;;;;;;21.36;45.19;101252.44;4520726;28;20040;-64
2022/10/27 05:46:01;;;;;;;1.50;1.40;;;;;;;21.35;44.91;101256.50;4499698;28;20582;-64
2022/10/27 05:48:11;;;;;;;1.35;1.00;;;;;;;21.33;45.14;101252.28;4526460;28;20100;-64
2022/10/27 05:50:22;;;;;;;1.92;1.23;;;;;;;21.35;44.99;101255.66;4519808;28;20398;-65
2022/10/27 05:52:32;;;;;;;1.60;1.10;;;;;;;21.35;44.88;101256.50;4523440;28;20043;-64
2022/10/27 05:54:43;;;;;;;1.38;1.20;;;;;;;21.35;45.02;101256.50;4521140;28;20049;-64
2022/10/27 05:56:53;;;;;;;2.20;1.20;;;;;;;21.34;44.86;101257.72;4521370;28;20037;-64
2022/10/27 05:59:03;;;;;;;1.63;1.00;;;;;;;21.35;45.39;101259.38;4519923;28;20025;-64
2022/10/27 06:01:14;;;;;;;1.55;1.08;;;;;;;21.34;45.30;101260.59;4520887;28;20083;-64
2022/10/27 06:03:25;;;;;;;1.00;0.90;;;;;;;21.32;45.48;101251.47;4520857;28;20455;-64
2022/10/27 06:05:36;;;;;;;1.95;1.17;;;;;;;21.34;45.51;101259.75;4521079;28;20034;-64
2022/10/27 06:07:47;;;;;;;1.08;0.98;;;;;;;21.34;45.51;101254.00;4520458;28;20037;-64
2022/10/27 06:09:58;;;;;;;1.80;1.00;;;;;;;21.34;45.54;101257.72;4522158;28;20552;-64
2022/10/27 06:12:08;;;;;;;1.20;1.00;;;;;;;21.34;45.45;101259.75;4521330;28;20821;-64
2022/10/27 06:14:18;;;;;;;1.88;0.95;;;;;;;21.34;45.53;101263.47;4519849;28;20508;-64
2022/10/27 06:16:29;;;;;;;1.65;1.08;;;;;;;21.32;45.68;101260.09;4519835;28;20112;-64
2022/10/27 06:18:39;;;;;;;1.67;1.20;;;;;;;21.33;45.68;101270.38;4520528;28;20678;-65
2022/10/27 06:20:49;;;;;;;1.98;1.20;;;;;;;21.34;45.42;101265.47;4518989;28;20096;-64
2022/10/27 06:23:00;;;;;;;1.67;1.00;;;;;;;21.32;45.58;101268.72;4520582;28;20038;-64
2022/10/27 06:25:10;;;;;;;1.80;1.20;;;;;;;21.33;45.61;101275.28;4520266;28;20077;-64
2022/10/27 06:27:21;;;;;;;2.25;1.23;;;;;;;21.26;45.50;101257.81;4520013;28;20049;-64
2022/10/27 06:29:31;;;;;;;2.13;1.10;;;;;;;21.33;45.31;101276.13;4518725;28;20033;-64
2022/10/27 06:31:42;;;;;;;2.03;1.08;;;;;;;21.32;45.33;101274.44;4519582;28;20060;-64
2022/10/27 06:33:52;;;;;;;1.55;1.17;;;;;;;21.32;45.74;101277.31;4520447;28;20064;-64
2022/10/27 06:36:03;;;;;;;1.38;1.17;;;;;;;21.32;45.55;101274.44;4518793;28;20051;-65
2022/10/27 06:38:15;;;;;;;1.60;1.30;;;;;;;21.32;45.66;101285.09;4518322;28;20045;-65
2022/10/27 06:40:26;;;;;;;2.28;1.20;;;;;;;21.31;45.48;101281.38;4519916;28;20762;-65
2022/10/27 06:42:37;;;;;;;2.00;1.20;;;;;;;21.32;45.82;101294.56;4518656;28;20048;-64
2022/10/27 06:44:48;;;;;;;1.40;1.10;;;;;;;21.31;45.59;101289.16;4518662;28;20919;-64
2022/10/27 06:46:58;;;;;;;1.50;1.13;;;;;;;21.31;45.80;101301.47;4519760;28;20026;-65
2022/10/27 06:49:09;;;;;;;1.95;1.20;;;;;;;21.32;46.17;101303.16;4519645;28;20076;-64
2022/10/27 06:51:19;;;;;;;2.47;1.30;;;;;;;21.30;46.47;101298.97;4520214;28;20044;-64
2022/10/27 06:53:29;;;;;;;2.40;1.50;;;;;;;21.30;46.48;101305.53;4519279;28;20448;-64
2022/10/27 06:55:40;;;;;;;1.35;1.20;;;;;;;21.22;46.29;101286.38;4518891;28;22013;-65
2022/10/27 06:57:50;;;;;;;1.20;1.10;;;;;;;21.31;46.53;101306.41;4520340;28;20141;-65
2022/10/27 07:00:01;;;;;;;2.42;1.25;;;;;;;21.30;46.48;101313.31;4521165;28;20083;-64
2022/10/27 07:02:13;;;;;;;1.95;1.20;;;;;;;21.23;46.74;101295.84;4515844;28;20045;-64
2022/10/27 07:04:24;;;;;;;1.67;1.30;;;;;;;21.31;46.83;101315.00;4521953;28;20044;-64
2022/10/27 07:06:34;;;;;;;1.88;1.27;;;;;;;21.30;47.02;101310.44;4520486;28;20076;-64
2022/10/27 07:08:45;;;;;;;2.30;1.17;;;;;;;21.29;47.35;101301.00;4521608;28;20514;-64
2022/10/27 07:10:56;;;;;;;2.15;1.65;;;;;;;21.30;47.41;101316.19;4521005;28;20148;-65
2022/10/27 07:13:06;;;;;;;2.30;1.25;;;;;;;21.29;47.24;101306.75;4521144;28;20046;-65
2022/10/27 07:15:17;;;;;;;2.97;1.63;;;;;;;21.30;47.72;101317.03;4521066;28;20607;-66
2022/10/27 07:17:27;;;;;;;1.85;1.10;;;;;;;21.29;47.55;101315.38;4520928;28;20044;-66
2022/10/27 07:19:37;;;;;;;2.05;1.60;;;;;;;21.28;47.82;101319.41;4521538;28;20473;-65
2022/10/27 07:21:48;;;;;;;2.10;1.45;;;;;;;21.29;47.81;101323.13;4520448;28;20060;-65
2022/10/27 07:23:58;;;;;;;1.60;1.30;;;;;;;21.30;47.95;101321.94;4520949;28;20120;-68
2022/10/27 07:26:09;;;;;;;1.83;1.38;;;;;;;21.30;48.19;101319.06;4519686;28;20029;-64
2022/10/27 07:28:19;;;;;;;2.00;1.30;;;;;;;21.28;47.99;101319.41;4519568;28;20107;-65
2022/10/27 07:30:32;;;;;;;2.92;1.40;;;;;;;21.29;48.48;101320.25;4520419;28;20716;-64
2022/10/27 07:32:43;;;;;;;1.52;1.40;;;;;;;21.29;48.40;101323.97;4519245;28;20033;-65
2022/10/27 07:34:53;;;;;;;2.08;1.50;;;;;;;21.30;48.46;101324.78;4519264;28;20037;-64
2022/10/27 07:37:03;;;;;;;2.10;1.50;;;;;;;21.30;48.53;101316.19;4519322;28;20041;-64
2022/10/27 07:39:14;;;;;;;2.63;1.52;;;;;;;21.28;48.57;101330.91;4521967;28;20052;-64
2022/10/27 07:41:24;;;;;;;2.10;1.58;;;;;;;21.29;48.75;101323.13;4519612;28;20104;-65
2022/10/27 07:43:35;;;;;;;1.88;1.48;;;;;;;21.27;49.05;101332.09;4519623;28;20029;-64
2022/10/27 07:45:46;;;;;;;2.60;1.70;;;;;;;21.27;49.01;101334.97;4519110;28;20713;-64
2022/10/27 07:47:57;;;;;;;1.55;1.40;;;;;;;21.28;49.06;101335.81;4516979;28;20135;-65
2022/10/27 07:50:08;;;;;;;2.60;1.33;;;;;;;21.28;49.11;101336.63;4518952;28;20040;-65
2022/10/27 07:52:18;;;;;;;2.00;1.67;;;;;;;21.28;49.54;101330.06;4519529;28;20569;-64
2022/10/27 07:54:29;;;;;;;1.98;1.42;;;;;;;21.27;49.86;101329.22;4520365;28;20415;-64
2022/10/27 07:56:39;;;;;;;1.52;1.40;;;;;;;21.27;49.80;101339.88;4519109;28;20037;-64
2022/10/27 07:58:49;;;;;;;1.60;1.40;;;;;;;21.26;49.75;101327.56;4519985;28;20448;-64
2022/10/27 08:01:02;;;;;;;1.67;1.40;;;;;;;21.27;49.91;101334.13;4519971;28;20040;-65
2022/10/27 08:03:18;;;;;;;1.98;1.52;;;;;;;21.27;49.78;101322.63;4519000;28;20036;-65
2022/10/27 08:05:31;;;;;;;2.33;1.40;;;;;;;21.27;50.48;101329.22;4519458;28;20061;-64
2022/10/27 08:07:42;;;;;;;2.33;1.30;;;;;;;21.27;50.44;101325.50;4518675;28;20051;-65
2022/10/27 08:09:52;;;;;;;2.45;1.30;;;;;;;21.23;50.33;101319.63;4520487;28;20437;-64
2022/10/27 08:12:04;;;;;;;1.77;1.20;;;;;;;21.27;50.85;101319.75;4519948;28;20041;-64
2022/10/27 08:14:14;;;;;;;3.10;1.50;;;;;;;21.27;51.23;101320.63;4520799;28;20041;-64
2022/10/27 08:16:25;;;;;;;1.92;1.25;;;;;;;21.27;51.52;101320.63;4520171;28;20029;-65
2022/10/27 08:18:35;;;;;;;1.90;1.40;;;;;;;21.27;51.92;101323.50;4519335;28;20124;-64
2022/10/27 08:20:46;;;;;;;1.55;1.10;;;;;;;21.25;52.06;101325.03;4519240;28;20133;-65
2022/10/27 08:22:59;;;;;;;2.63;1.40;;;;;;;21.28;52.38;101318.59;4519796;28;20052;-65
2022/10/27 08:25:09;;;;;;;1.60;1.20;;;;;;;21.26;52.36;101316.06;4519037;28;20569;-65
2022/10/27 08:27:20;;;;;;;1.90;1.40;;;;;;;21.28;52.83;101319.41;4519493;28;20287;-64
2022/10/27 08:29:30;;;;;;;1.83;1.27;;;;;;;21.27;53.24;101317.75;4519275;28;20038;-65
2022/10/27 08:31:40;;;;;;;2.15;1.25;;;;;;;21.28;53.51;101312.84;4519145;28;20026;-65
2022/10/27 08:33:51;;;;;;;1.48;1.10;;;;;;;21.29;53.62;101315.38;4519633;28;20495;-64
2022/10/27 08:36:01;;;;;;;2.03;1.20;;;;;;;21.28;53.36;101313.66;4519792;28;20557;-65
2022/10/27 08:38:15;;;;;;;2.35;1.42;;;;;;;21.28;54.00;101313.66;4517101;28;20107;-64
2022/10/27 08:40:52;;;;;;;1.63;1.20;;;;;;;21.27;53.67;101306.25;4537921;28;20027;-65
2022/10/27 08:43:19;;;;;;;2.17;1.35;;;;;;;21.28;54.32;101296.44;4538827;28;20746;-65
2022/10/27 08:45:33;;;;;;;;;;;;;;;21.29;54.54;101295.25;4523360;28;20236;-65
2022/10/27 08:47:45;;;;;;;1.67;1.20;;;;;;;21.29;54.62;101288.69;4522136;28;20030;-65
2022/10/27 08:50:14;;;;;;;2.28;1.30;;;;;;;21.28;55.04;101284.94;4523251;28;20033;-65
2022/10/27 08:52:28;;;;;;;1.55;1.23;;;;;;;21.28;55.12;101282.09;4521351;28;20063;-61
2022/10/27 08:54:42;;;;;;;2.55;1.40;;;;;;;21.29;54.93;101283.78;4521540;28;20071;-61
2022/10/27 08:56:56;;;;;;;1.58;1.25;;;;;;;21.29;55.33;101277.19;4524130;28;20576;-62
2022/10/27 08:59:35;;;;;;;1.13;1.00;;;;;;;21.29;55.12;101278.03;4521488;28;20107;-61
2022/10/27 09:02:00;;;;;;;1.42;1.00;;;;;;;21.30;54.80;101282.56;4520736;28;20049;-65
2022/10/27 09:04:43;;;;;;;2.17;1.35;;;;;;;21.30;54.39;101288.31;4521510;28;20029;-65
2022/10/27 09:07:09;;;;;;;1.20;0.85;;;;;;;21.30;54.46;101282.56;4521323;28;20122;-65
2022/10/27 09:09:38;;;;;;;2.95;1.08;;;;;;;21.31;54.80;101283.44;4523097;28;20517;-64
2022/10/27 09:12:15;;;;;;;0.98;0.90;;;;;;;21.31;54.76;101271.94;4522214;28;20025;-64
2022/10/27 09:14:45;;;;;;;1.10;0.80;;;;;;;21.31;54.64;101278.50;4522199;28;20065;-65
2022/10/27 09:17:01;;;;;;;1.58;1.02;;;;;;;21.31;55.42;101269.88;4521121;28;20035;-65
2022/10/27 09:19:16;;;;;;;1.13;0.95;;;;;;;21.30;55.78;101261.63;4522431;28;21420;-65
2022/10/27 09:21:31;;;;;;;1.55;0.90;;;;;;;21.29;55.37;101268.56;4521676;28;20033;-64
2022/10/27 09:23:49;;;;;;;1.23;0.88;;;;;;;21.32;55.97;101273.59;4519262;28;20529;-65
2022/10/27 09:25:59;;;;;;;1.00;0.82;;;;;;;21.32;55.67;101268.72;4522129;28;20033;-64
2022/10/27 09:28:19;;;;;;;1.45;1.00;;;;;;;21.32;56.27;101273.59;4521863;28;20045;-65
2022/10/27 09:30:33;;;;;;;1.10;0.85;;;;;;;21.32;56.62;101268.72;4521793;28;20029;-65
2022/10/27 09:32:55;;;;;;;1.05;0.80;;;;;;;21.32;56.75;101270.72;4521057;28;20088;-65
2022/10/27 09:35:13;;;;;;;1.10;0.88;;;;;;;21.32;57.17;101270.72;4521145;28;20034;-65
2022/10/27 09:37:26;;;;;;;1.58;1.10;;;;;;;21.32;56.88;101273.59;4521241;28;20625;-65
2022/10/27 09:39:37;;;;;;;1.05;0.90;;;;;;;21.33;56.92;101278.13;4520205;28;20081;-65
2022/10/27 09:41:48;;;;;;;1.38;0.90;;;;;;;21.32;57.38;101273.59;4520615;28;20040;-65
2022/10/27 09:43:59;;;;;;;1.23;0.80;;;;;;;21.32;57.74;101274.44;4532721;28;20438;-65
2022/10/27 09:46:24;;;;;;;1.27;0.80;;;;;;;21.32;57.64;101274.44;4521426;28;20691;-65
2022/10/27 09:48:35;;;;;;;1.23;0.60;;;;;;;21.30;57.70;101271.09;4520155;28;20029;-65
2022/10/27 09:51:24;;;;;;;1.23;0.50;;;;;;;21.32;57.38;101280.19;4521952;28;20025;-65
2022/10/27 09:53:42;;;;;;;0.52;0.50;;;;;;;21.33;57.15;101278.13;4520931;28;20085;-65
2022/10/27 09:55:53;;;;;;;1.27;0.63;;;;;;;21.34;57.36;101274.09;4535374;28;20031;-65
2022/10/27 09:58:03;;;;;;;0.80;0.50;;;;;;;21.33;56.88;101276.13;4521831;28;20038;-65
2022/10/27 10:00:20;;;;;;;0.70;0.60;;;;;;;21.33;57.49;101272.41;4537846;28;20041;-65
2022/10/27 10:02:32;;;;;;;;;;;;;;;21.33;57.64;101267.50;4537099;28;20660;-64
2022/10/27 10:04:46;;;;;;;0.93;0.60;;;;;;;21.34;58.08;101271.22;4519815;28;19916;-65
2022/10/27 10:06:59;;;;;;;1.48;0.60;;;;;;;21.33;58.13;101264.63;4520914;28;20603;-65
2022/10/27 10:09:21;;;;;;;0.98;0.50;;;;;;;21.32;57.86;101257.22;4522039;28;20033;-65
2022/10/27 10:11:32;;;;;;;0.88;0.60;;;;;;;21.35;57.88;101259.38;4519756;28;20029;-65
2022/10/27 10:13:55;;;;;;;1.63;0.70;;;;;;;21.31;57.13;101248.97;4519851;28;20414;-65
2022/10/27 10:16:13;;;;;;;1.63;0.60;;;;;;;21.33;56.55;101253.16;4520915;28;20044;-65
2022/10/27 10:18:27;;;;;;;0.70;0.50;;;;;;;21.34;56.58;101254.84;4521181;28;20045;-65
2022/10/27 10:20:41;;;;;;;0.65;0.50;;;;;;;21.35;56.71;101249.91;4521446;28;20556;-64
2022/10/27 10:22:52;;;;;;;0.95;0.60;;;;;;;21.34;57.03;101243.34;4533895;28;20613;-65